La Paz, Bolivia
Current Conditions -  °F | °C
As of 2:00 PM on Thursday 30 Oct 2014 (Local Time) from SLLP Reporting Station
Scattered Clouds Scattered Clouds  
Wind Chill: 64°   Ceiling: Unl
Heat Index: 64°   Visibility: 6mi
Dew Point: 18°   Wind: 6mph
Humidity: 16%   Direction: 30°NNE
Pressure: 30.48"   Gusts: NA
Location:  16.5°S, 68.15°W
Report Text: SLLP 301800Z 03005KT 9999 SCT017 FEW020CB 18/M08 Q1032
Loading
Personal Weather Stations






























Interactive Weather Map
Tropical Storm Tracking
New forecast layout! Learn more

10-Day Weather Forecast

Advertisements
Track Severe Weather on mobile